| time (UTC) | temp F | wind direction | speed knots | gust knots | rain 1hr in | rain 24hr in | rain mn in | humidity % | barometer mb |
| 20260906122759 | 59 | 311 | 0.0 | 0.0 | 0.00 | 0.00 | 0.00 | 71 | 1023.6 |
| 20260906122255 | 59 | 311 | 0.0 | 0.0 | 0.00 | 0.00 | 0.00 | 71 | 1023.4 |
| 20260906121751 | 59 | 311 | 0.0 | 0.0 | 0.00 | 0.00 | 0.00 | 70 | 1023.4 |
| 20260906121247 | 59 | 311 | 0.0 | 0.9 | 0.00 | 0.00 | 0.00 | 70 | 1023.2 |
| 20260906120742 | 59 | 311 | 0.0 | 0.0 | 0.00 | 0.00 | 0.00 | 70 | 1023.4 |
| 20260906120239 | 59 | 311 | 0.0 | 0.9 | 0.00 | 0.00 | 0.00 | 71 | 1023.2 |
| 20260906115735 | 59 | 311 | 0.0 | 0.0 | 0.00 | 0.00 | 0.00 | 70 | 1023.2 |
| 20260906115230 | 59 | 310 | 0.0 | 0.0 | 0.00 | 0.00 | 0.00 | 69 | 1023.2 |
| 20260906114728 | 60 | 311 | 0.0 | 0.0 | 0.00 | 0.00 | 0.00 | 70 | 1023.2 |
| 20260906114224 | 61 | 311 | 0.0 | 0.0 | 0.00 | 0.00 | 0.00 | 66 | 1023.1 |
| 20260906113719 | 61 | 311 | 0.0 | 0.0 | 0.00 | 0.00 | 0.00 | 66 | 1023.2 |
| 20260906113219 | 61 | 311 | 0.0 | 0.0 | 0.00 | 0.00 | 0.00 | 65 | 1023.0 |
| 20260906112718 | 61 | 310 | 0.0 | 0.9 | 0.00 | 0.00 | 0.00 | 66 | 1023.1 |
| 20260906112215 | 62 | 311 | 0.0 | 0.0 | 0.00 | 0.00 | 0.00 | 65 | 1022.8 |
| 20260906111714 | 61 | 311 | 0.0 | 0.0 | 0.00 | 0.00 | 0.00 | 64 | 1023.0 |
| 20260906111209 | 62 | 311 | 0.0 | 0.0 | 0.00 | 0.00 | 0.00 | 63 | 1023.0 |
| 20260906110705 | 62 | 311 | 0.0 | 0.0 | 0.00 | 0.00 | 0.00 | 64 | 1022.6 |
| 20260906110200 | 63 | 311 | 0.0 | 0.0 | 0.00 | 0.00 | 0.00 | 63 | 1022.8 |
| 20260906105700 | 62 | 311 | 0.0 | 0.0 | 0.00 | 0.00 | 0.00 | 63 | 1022.8 |
| 20260906105156 | 62 | 311 | 0.9 | 0.9 | 0.00 | 0.00 | 0.00 | 64 | 1022.6 |
| 20260906104656 | 62 | 311 | 0.0 | 0.0 | 0.00 | 0.00 | 0.00 | 64 | 1022.6 |
| 20260906104155 | 62 | 311 | 0.0 | 0.0 | 0.00 | 0.00 | 0.00 | 62 | 1022.8 |
| 20260906103653 | 62 | 311 | 0.0 | 0.0 | 0.00 | 0.00 | 0.00 | 64 | 1022.9 |
| 20260906103148 | 62 | 311 | 0.0 | 0.0 | 0.00 | 0.00 | 0.00 | 67 | 1022.8 |
| 20260906102643 | 62 | 311 | 0.0 | 0.0 | 0.00 | 0.00 | 0.00 | 65 | 1022.8 |
| 20260906102143 | 62 | 311 | 0.0 | 0.0 | 0.00 | 0.00 | 0.00 | 64 | 1023.0 |
| 20260906101642 | 62 | 311 | 0.9 | 0.9 | 0.00 | 0.00 | 0.00 | 65 | 1022.9 |
| 20260906101137 | 62 | 311 | 0.0 | 0.0 | 0.00 | 0.00 | 0.00 | 66 | 1023.0 |
| 20260906100633 | 63 | 311 | 0.0 | 0.9 | 0.00 | 0.00 | 0.00 | 65 | 1023.1 |
| 20260906100128 | 63 | 311 | 0.9 | 0.9 | 0.00 | 0.00 | 0.00 | 65 | 1023.1 |
| 20260906095627 | 63 | 311 | 0.0 | 0.0 | 0.00 | 0.00 | 0.00 | 65 | 1023.2 |
| 20260906095123 | 63 | 311 | 0.0 | 0.0 | 0.00 | 0.00 | 0.00 | 64 | 1023.2 |
| 20260906094622 | 63 | 311 | 0.0 | 0.0 | 0.00 | 0.00 | 0.00 | 63 | 1023.1 |
| 20260906094118 | 64 | 311 | 0.0 | 0.0 | 0.00 | 0.00 | 0.00 | 64 | 1023.1 |
| 20260906093614 | 64 | 311 | 0.0 | 0.9 | 0.00 | 0.00 | 0.00 | 63 | 1023.2 |
| 20260906093114 | 64 | 311 | 0.0 | 0.0 | 0.00 | 0.00 | 0.00 | 62 | 1023.2 |
| 20260906092610 | 64 | 311 | 0.0 | 0.0 | 0.00 | 0.00 | 0.00 | 61 | 1023.4 |
| 20260906092105 | 64 | 311 | 0.0 | 0.0 | 0.00 | 0.00 | 0.00 | 59 | 1023.1 |
| 20260906091601 | 64 | 302 | 0.9 | 0.9 | 0.00 | 0.00 | 0.00 | 58 | 1022.9 |
| 20260906091057 | 64 | 302 | 0.0 | 0.0 | 0.00 | 0.00 | 0.00 | 59 | 1022.8 |
| 20260906090556 | 64 | 302 | 0.0 | 0.0 | 0.00 | 0.00 | 0.00 | 59 | 1022.8 |
| 20260906090056 | 65 | 302 | 0.0 | 0.0 | 0.00 | 0.00 | 0.00 | 58 | 1023.0 |
| 20260906085555 | 64 | 302 | 0.0 | 0.0 | 0.00 | 0.00 | 0.00 | 56 | 1022.8 |
| 20260906085050 | 64 | 302 | 0.0 | 0.0 | 0.00 | 0.00 | 0.00 | 58 | 1022.8 |
| 20260906084545 | 65 | 302 | 0.0 | 0.9 | 0.00 | 0.00 | 0.00 | 58 | 1022.8 |
| 20260906084043 | 66 | 302 | 0.0 | 0.0 | 0.00 | 0.00 | 0.00 | 55 | 1022.8 |
| 20260906083539 | 66 | 302 | 0.0 | 0.0 | 0.00 | 0.00 | 0.00 | 55 | 1022.6 |
| 20260906083039 | 66 | 301 | 0.0 | 0.0 | 0.00 | 0.00 | 0.00 | 53 | 1022.9 |
| 20260906082534 | 66 | 309 | 0.0 | 0.0 | 0.00 | 0.00 | 0.00 | 53 | 1022.9 |
| 20260906082030 | 66 | 309 | 0.0 | 0.9 | 0.00 | 0.00 | 0.00 | 54 | 1022.9 |
| 20260906081525 | 66 | 305 | 0.9 | 1.7 | 0.00 | 0.00 | 0.00 | 55 | 1023.0 |
| 20260906081022 | 67 | 291 | 0.0 | 0.0 | 0.00 | 0.00 | 0.00 | 57 | 1023.0 |
| 20260906080518 | 68 | 292 | 0.0 | 0.0 | 0.00 | 0.00 | 0.00 | 54 | 1023.0 |
| 20260906080014 | 68 | 292 | 0.0 | 0.9 | 0.00 | 0.00 | 0.00 | 53 | 1023.0 |
| 20260906075513 | 68 | 290 | 1.7 | 1.7 | 0.00 | 0.00 | 0.00 | 54 | 1023.2 |
| 20260906075008 | 68 | 287 | 1.7 | 1.7 | 0.00 | 0.00 | 0.00 | 54 | 1023.1 |
| 20260906074503 | 68 | 295 | 1.7 | 1.7 | 0.00 | 0.00 | 0.00 | 53 | 1023.1 |
| 20260906074001 | 67 | 291 | 1.7 | 2.6 | 0.00 | 0.00 | 0.00 | 56 | 1023.1 |
| 20260906073456 | 67 | 306 | 1.7 | 1.7 | 0.00 | 0.00 | 0.00 | 58 | 1023.0 |
| 20260906072952 | 66 | 312 | 0.0 | 0.9 | 0.00 | 0.00 | 0.00 | 60 | 1023.2 |
| 20260906072447 | 65 | 308 | 0.9 | 1.7 | 0.00 | 0.00 | 0.00 | 64 | 1023.1 |
| 20260906071943 | 65 | 310 | 0.9 | 0.9 | 0.00 | 0.00 | 0.00 | 64 | 1023.0 |
| 20260906071439 | 65 | 309 | 0.9 | 0.9 | 0.00 | 0.00 | 0.00 | 64 | 1023.0 |
| 20260906070935 | 65 | 304 | 0.9 | 0.9 | 0.00 | 0.00 | 0.00 | 64 | 1023.1 |
| 20260906070431 | 64 | 294 | 1.7 | 1.7 | 0.00 | 0.00 | 0.00 | 64 | 1023.4 |
| 20260906065926 | 64 | 294 | 0.9 | 0.9 | 0.00 | 0.00 | 0.00 | 64 | 1023.4 |
| 20260906065420 | 63 | 294 | 0.0 | 0.9 | 0.00 | 0.00 | 0.00 | 66 | 1023.2 |
| 20260906064916 | 62 | 294 | 0.0 | 0.0 | 0.00 | 0.00 | 0.00 | 67 | 1023.2 |
| 20260906064413 | 62 | 294 | 0.9 | 0.9 | 0.00 | 0.00 | 0.00 | 69 | 1023.2 |
| 20260906063912 | 63 | 294 | 0.0 | 0.0 | 0.00 | 0.00 | 0.00 | 67 | 1023.6 |
| 20260906063408 | 63 | 294 | 0.0 | 0.0 | 0.00 | 0.00 | 0.00 | 66 | 1023.4 |
| 20260906062902 | 63 | 294 | 0.0 | 0.0 | 0.00 | 0.00 | 0.00 | 65 | 1023.5 |
| 20260906062402 | 64 | 294 | 0.9 | 0.9 | 0.00 | 0.00 | 0.00 | 64 | 1023.4 |
| 20260906061857 | 64 | 294 | 0.0 | 0.9 | 0.00 | 0.00 | 0.00 | 62 | 1023.4 |
| 20260906061354 | 64 | 294 | 0.0 | 0.9 | 0.00 | 0.00 | 0.00 | 63 | 1023.2 |
| 20260906060848 | 64 | 294 | 0.0 | 0.0 | 0.00 | 0.00 | 0.00 | 63 | 1023.1 |
| 20260906060346 | 64 | 294 | 0.9 | 0.9 | 0.00 | 0.00 | 0.00 | 63 | 1023.0 |
| 20260906055841 | 64 | 294 | 0.9 | 0.9 | 0.00 | 0.01 | 0.01 | 63 | 1023.4 |
| 20260906055337 | 65 | 294 | 0.0 | 0.0 | 0.00 | 0.01 | 0.01 | 62 | 1023.4 |
| 20260906054832 | 65 | 294 | 0.0 | 0.0 | 0.00 | 0.01 | 0.01 | 61 | 1023.4 |
| 20260906054327 | 66 | 294 | 0.0 | 0.0 | 0.00 | 0.01 | 0.01 | 61 | 1022.9 |
| 20260906053824 | 66 | 294 | 0.0 | 0.0 | 0.00 | 0.01 | 0.01 | 59 | 1023.0 |
| 20260906053319 | 67 | 294 | 0.0 | 0.0 | 0.00 | 0.01 | 0.01 | 59 | 1023.0 |
| 20260906052814 | 66 | 294 | 0.9 | 0.9 | 0.00 | 0.01 | 0.01 | 58 | 1023.0 |
| 20260906052310 | 67 | 294 | 0.0 | 0.0 | 0.00 | 0.01 | 0.01 | 57 | 1023.1 |
| 20260906051807 | 67 | 294 | 0.0 | 0.0 | 0.00 | 0.01 | 0.01 | 56 | 1023.0 |
| 20260906051307 | 67 | 294 | 0.0 | 0.0 | 0.00 | 0.01 | 0.01 | 56 | 1022.9 |
| 20260906050802 | 68 | 294 | 0.0 | 0.0 | 0.00 | 0.01 | 0.01 | 55 | 1023.0 |
| 20260906050257 | 68 | 292 | 0.9 | 0.9 | 0.00 | 0.01 | 0.01 | 54 | 1023.1 |
| 20260906045756 | 68 | 299 | 0.0 | 0.9 | 0.00 | 0.01 | 0.01 | 53 | 1023.0 |
| 20260906045250 | 68 | 299 | 0.0 | 0.0 | 0.00 | 0.01 | 0.01 | 54 | 1023.1 |
| 20260906044747 | 69 | 299 | 1.7 | 1.7 | 0.00 | 0.01 | 0.01 | 52 | 1022.9 |
| 20260906044241 | 69 | 300 | 0.9 | 0.9 | 0.00 | 0.01 | 0.01 | 51 | 1023.1 |
| 20260906043737 | 70 | 298 | 0.9 | 1.7 | 0.00 | 0.01 | 0.01 | 50 | 1023.2 |
| 20260906043233 | 70 | 298 | 0.0 | 0.9 | 0.00 | 0.01 | 0.01 | 49 | 1023.1 |
| 20260906042733 | 70 | 300 | 0.9 | 0.9 | 0.00 | 0.01 | 0.01 | 50 | 1023.1 |
| 20260906042232 | 70 | 300 | 0.9 | 1.7 | 0.00 | 0.01 | 0.01 | 50 | 1023.4 |
| 20260906041727 | 70 | 301 | 0.9 | 0.9 | 0.00 | 0.01 | 0.01 | 50 | 1023.5 |
| 20260906041223 | 70 | 303 | 0.9 | 0.9 | 0.00 | 0.01 | 0.01 | 49 | 1023.2 |
| 20260906040718 | 71 | 304 | 0.0 | 0.0 | 0.00 | 0.01 | 0.01 | 47 | 1023.2 |
| 20260906040214 | 71 | 303 | 0.0 | 0.9 | 0.00 | 0.01 | 0.01 | 46 | 1023.1 |
| 20260906035709 | 72 | 303 | 0.0 | 0.9 | 0.00 | 0.01 | 0.01 | 46 | 1023.1 |
| 20260906035205 | 72 | 293 | 1.7 | 1.7 | 0.00 | 0.01 | 0.01 | 45 | 1023.4 |
| 20260906034704 | 73 | 290 | 0.9 | 0.9 | 0.00 | 0.01 | 0.01 | 44 | 1023.2 |
| 20260906034159 | 72 | 293 | 0.0 | 0.0 | 0.00 | 0.01 | 0.01 | 45 | 1023.4 |
| 20260906033655 | 72 | 294 | 2.6 | 2.6 | 0.00 | 0.01 | 0.01 | 44 | 1023.4 |
| 20260906033156 | 72 | 293 | 0.0 | 0.0 | 0.00 | 0.01 | 0.01 | 45 | 1023.2 |
| 20260906032652 | 72 | 293 | 0.9 | 0.9 | 0.00 | 0.01 | 0.01 | 45 | 1023.2 |
| 20260906032152 | 72 | 293 | 0.9 | 1.7 | 0.00 | 0.01 | 0.01 | 46 | 1023.2 |
| 20260906031647 | 72 | 293 | 0.0 | 0.9 | 0.00 | 0.01 | 0.01 | 46 | 1023.1 |
| 20260906031143 | 71 | 282 | 3.5 | 5.2 | 0.00 | 0.01 | 0.01 | 46 | 1023.0 |
| 20260906030642 | 72 | 294 | 0.0 | 0.9 | 0.00 | 0.01 | 0.01 | 46 | 1023.1 |
| 20260906030137 | 72 | 294 | 0.9 | 0.9 | 0.00 | 0.01 | 0.01 | 45 | 1023.0 |
| 20260906025637 | 72 | 295 | 0.9 | 0.9 | 0.00 | 0.01 | 0.01 | 45 | 1022.8 |
| 20260906025136 | 72 | 296 | 0.0 | 0.9 | 0.00 | 0.01 | 0.01 | 45 | 1022.6 |
| 20260906024630 | 73 | 296 | 0.0 | 0.9 | 0.00 | 0.01 | 0.01 | 44 | 1022.5 |
| 20260906024125 | 73 | 295 | 1.7 | 1.7 | 0.00 | 0.01 | 0.01 | 43 | 1022.5 |
| 20260906023621 | 73 | 333 | 0.0 | 0.9 | 0.00 | 0.01 | 0.01 | 44 | 1022.3 |
| 20260906023120 | 74 | 333 | 0.0 | 0.0 | 0.00 | 0.01 | 0.01 | 43 | 1022.4 |
| 20260906022616 | 73 | 321 | 0.0 | 0.0 | 0.00 | 0.01 | 0.01 | 41 | 1022.2 |
| 20260906022111 | 74 | 312 | 0.9 | 0.9 | 0.00 | 0.01 | 0.01 | 41 | 1022.2 |
| 20260906021607 | 75 | 307 | 0.9 | 0.9 | 0.00 | 0.01 | 0.01 | 37 | 1021.9 |
| 20260906021106 | 75 | 273 | 2.6 | 3.5 | 0.00 | 0.01 | 0.01 | 36 | 1021.6 |
| 20260906020605 | 76 | 279 | 0.9 | 0.9 | 0.00 | 0.01 | 0.01 | 37 | 1021.6 |
| 20260906020100 | 76 | 284 | 3.5 | 5.2 | 0.00 | 0.01 | 0.01 | 37 | 1021.4 |
| 20260906015600 | 76 | 285 | 2.6 | 2.6 | 0.00 | 0.01 | 0.01 | 37 | 1021.6 |
| 20260906015059 | 77 | 281 | 3.5 | 3.5 | 0.00 | 0.01 | 0.01 | 37 | 1021.4 |
| 20260906014554 | 77 | 284 | 1.7 | 2.6 | 0.00 | 0.01 | 0.01 | 36 | 1021.3 |
| 20260906014050 | 77 | 306 | 2.6 | 3.5 | 0.00 | 0.01 | 0.01 | 36 | 1021.2 |
| 20260906013545 | 77 | 287 | 4.3 | 5.2 | 0.00 | 0.01 | 0.01 | 36 | 1021.3 |
| 20260906013040 | 77 | 299 | 1.7 | 1.7 | 0.00 | 0.01 | 0.01 | 36 | 1021.1 |
| 20260906012535 | 78 | 293 | 1.7 | 2.6 | 0.00 | 0.01 | 0.01 | 36 | 1021.3 |
| 20260906012035 | 78 | 286 | 3.5 | 6.1 | 0.00 | 0.01 | 0.01 | 36 | 1021.3 |
| 20260906011531 | 78 | 276 | 2.6 | 2.6 | 0.00 | 0.01 | 0.01 | 36 | 1021.3 |
| 20260906011031 | 78 | 283 | 2.6 | 2.6 | 0.00 | 0.01 | 0.01 | 36 | 1021.3 |
| 20260906010526 | 79 | 305 | 0.9 | 1.7 | 0.00 | 0.01 | 0.01 | 36 | 1021.4 |
| 20260906010022 | 78 | 286 | 1.7 | 2.6 | 0.00 | 0.01 | 0.01 | 37 | 1021.3 |
| 20260906005521 | 78 | 303 | 1.7 | 1.7 | 0.00 | 0.01 | 0.01 | 39 | 1021.6 |
| 20260906005021 | 78 | 299 | 1.7 | 1.7 | 0.00 | 0.01 | 0.01 | 40 | 1021.6 |
| 20260906004515 | 79 | 311 | 0.9 | 0.9 | 0.00 | 0.01 | 0.01 | 43 | 1021.6 |
| 20260906004010 | 80 | 311 | 0.0 | 0.0 | 0.00 | 0.01 | 0.01 | 40 | 1021.3 |
| 20260906003505 | 82 | 311 | 0.0 | 0.9 | 0.00 | 0.01 | 0.01 | 36 | 1021.3 |
| 20260906003001 | 82 | 311 | 0.0 | 0.0 | 0.00 | 0.01 | 0.01 | 31 | 1021.4 |
| 20260906002501 | 83 | 311 | 0.0 | 0.0 | 0.00 | 0.01 | 0.01 | 29 | 1021.3 |
| 20260906001955 | 83 | 311 | 0.0 | 0.0 | 0.00 | 0.01 | 0.01 | 30 | 1021.4 |
| 20260906001452 | 84 | 311 | 0.0 | 0.0 | 0.00 | 0.01 | 0.01 | 30 | 1021.6 |
| 20260906000946 | 85 | 311 | 0.0 | 0.0 | 0.00 | 0.01 | 0.01 | 29 | 1021.6 |
| 20260906000442 | 85 | 311 | 0.0 | 0.0 | 0.00 | 0.01 | 0.01 | 29 | 1021.2 |
| 20260905235936 | 85 | 311 | 0.0 | 0.0 | 0.00 | 0.01 | 0.01 | 27 | 1021.3 |
| 20260905235436 | 85 | 311 | 0.9 | 0.9 | 0.00 | 0.01 | 0.01 | 26 | 1021.3 |
| 20260905234931 | 85 | 312 | 0.0 | 0.0 | 0.00 | 0.01 | 0.01 | 29 | 1021.4 |
| 20260905234427 | 85 | 312 | 0.0 | 0.0 | 0.00 | 0.01 | 0.01 | 28 | 1021.4 |
| 20260905233926 | 86 | 312 | 0.0 | 0.9 | 0.00 | 0.01 | 0.01 | 28 | 1021.3 |
| 20260905233422 | 87 | 311 | 0.0 | 0.0 | 0.00 | 0.01 | 0.01 | 27 | 1021.2 |
| 20260905232921 | 89 | 294 | 1.7 | 1.7 | 0.00 | 0.01 | 0.01 | 24 | 1021.2 |
| 20260905232417 | 88 | 297 | 0.9 | 1.7 | 0.00 | 0.01 | 0.01 | 24 | 1021.3 |
| 20260905231912 | 88 | 300 | 0.9 | 1.7 | 0.00 | 0.01 | 0.01 | 24 | 1021.4 |
| 20260905231408 | 87 | 316 | 0.0 | 0.0 | 0.00 | 0.01 | 0.01 | 26 | 1021.3 |
| 20260905230905 | 86 | 304 | 1.7 | 2.6 | 0.00 | 0.01 | 0.01 | 25 | 1021.4 |
| 20260905230403 | 86 | 292 | 0.9 | 1.7 | 0.00 | 0.01 | 0.01 | 27 | 1021.4 |
| 20260905225901 | 85 | 315 | 0.0 | 0.9 | 0.00 | 0.01 | 0.01 | 29 | 1021.6 |
| 20260905225356 | 85 | 322 | 1.7 | 1.7 | 0.00 | 0.01 | 0.01 | 26 | 1021.6 |
| 20260905224851 | 85 | 319 | 0.0 | 0.9 | 0.00 | 0.01 | 0.01 | 28 | 1021.7 |
| 20260905224347 | 85 | 337 | 1.7 | 1.7 | 0.00 | 0.01 | 0.01 | 28 | 1021.4 |
| 20260905223841 | 85 | 319 | 1.7 | 1.7 | 0.00 | 0.01 | 0.01 | 27 | 1021.4 |
| 20260905223340 | 85 | 279 | 2.6 | 3.5 | 0.00 | 0.01 | 0.01 | 26 | 1021.6 |
| 20260905222840 | 86 | 328 | 4.3 | 6.1 | 0.00 | 0.01 | 0.01 | 26 | 1021.7 |
| 20260905222338 | 86 | 315 | 0.9 | 0.9 | 0.00 | 0.01 | 0.01 | 27 | 1021.3 |
| 20260905221835 | 86 | 331 | 0.9 | 0.9 | 0.00 | 0.01 | 0.01 | 25 | 1021.7 |
| 20260905221331 | 87 | 312 | 0.9 | 0.9 | 0.00 | 0.01 | 0.01 | 30 | 1021.7 |
| 20260905220827 | 86 | 302 | 1.7 | 2.6 | 0.00 | 0.01 | 0.01 | 27 | 1021.7 |
| 20260905220323 | 84 | 315 | 0.0 | 0.0 | 0.00 | 0.01 | 0.01 | 33 | 1021.7 |
| 20260905215822 | 83 | 303 | 1.7 | 2.6 | 0.00 | 0.01 | 0.01 | 31 | 1021.6 |
| 20260905215318 | 83 | 295 | 2.6 | 2.6 | 0.00 | 0.01 | 0.01 | 31 | 1021.7 |
| 20260905214814 | 82 | 313 | 0.9 | 0.9 | 0.00 | 0.01 | 0.01 | 33 | 1021.8 |
| 20260905214309 | 82 | 306 | 2.6 | 3.5 | 0.00 | 0.01 | 0.01 | 35 | 1021.8 |
| 20260905213804 | 81 | 300 | 3.5 | 5.2 | 0.00 | 0.01 | 0.01 | 38 | 1021.8 |
| 20260905213300 | 78 | 313 | 1.7 | 1.7 | 0.00 | 0.01 | 0.01 | 44 | 1021.8 |
| 20260905212755 | 75 | 281 | 3.5 | 5.2 | 0.00 | 0.01 | 0.01 | 52 | 1021.8 |
| 20260905212255 | 75 | 292 | 5.2 | 6.1 | 0.00 | 0.01 | 0.01 | 53 | 1021.7 |
| 20260905211755 | 74 | 281 | 3.5 | 3.5 | 0.00 | 0.01 | 0.01 | 56 | 1021.9 |
| 20260905211250 | 74 | 301 | 3.5 | 5.2 | 0.00 | 0.01 | 0.01 | 54 | 1022.0 |
| 20260905210747 | 73 | 289 | 3.5 | 6.1 | 0.07 | 0.01 | 0.01 | 56 | 1022.2 |
| 20260905210246 | 72 | 248 | 4.3 | 6.1 | 0.07 | 0.01 | 0.01 | 57 | 1022.3 |
| 20260905205745 | 71 | 263 | 3.5 | 5.2 | 0.07 | 0.01 | 0.01 | 63 | 1022.2 |
| 20260905205240 | 71 | 287 | 2.6 | 2.6 | 0.00 | 0.00 | 0.00 | 63 | 1022.2 |
| 20260905204739 | 71 | 304 | 0.0 | 0.0 | 0.00 | 0.00 | 0.00 | 65 | 1022.0 |
| 20260905204235 | 71 | 302 | 2.6 | 2.6 | 0.00 | 0.00 | 0.00 | 65 | 1022.5 |
| 20260905203735 | 81 | 303 | 7.0 | 7.8 | 0.00 | 0.00 | 0.00 | 51 | 1022.4 |
| 20260905203230 | 85 | 290 | 3.5 | 3.5 | 0.00 | 0.00 | 0.00 | 28 | 1022.3 |
| 20260905202726 | 86 | 333 | 0.0 | 0.0 | 0.00 | 0.00 | 0.00 | 29 | 1021.9 |
| 20260905202221 | 86 | 358 | 0.0 | 0.9 | 0.00 | 0.00 | 0.00 | 27 | 1021.9 |
| 20260905201717 | 87 | 357 | 0.0 | 0.0 | 0.00 | 0.00 | 0.00 | 26 | 1021.9 |
| 20260905201216 | 87 | 320 | 0.0 | 0.0 | 0.00 | 0.00 | 0.00 | 28 | 1021.9 |
| 20260905200712 | 87 | 329 | 0.0 | 0.0 | 0.00 | 0.00 | 0.00 | 28 | 1021.8 |
| 20260905200208 | 87 | 356 | 0.0 | 0.0 | 0.00 | 0.00 | 0.00 | 27 | 1021.8 |
| 20260905195705 | 89 | 318 | 0.0 | 0.0 | 0.00 | 0.00 | 0.00 | 26 | 1021.9 |
| 20260905195200 | 90 | 322 | 1.7 | 1.7 | 0.00 | 0.00 | 0.00 | 25 | 1021.7 |
| 20260905194656 | 90 | 306 | 0.0 | 0.9 | 0.00 | 0.00 | 0.00 | 24 | 1021.7 |
| 20260905194156 | 89 | 355 | 0.0 | 0.0 | 0.00 | 0.00 | 0.00 | 25 | 1021.9 |
| 20260905193655 | 89 | 354 | 0.0 | 0.0 | 0.00 | 0.00 | 0.00 | 27 | 1021.9 |
| 20260905193151 | 92 | 358 | 1.7 | 1.7 | 0.00 | 0.00 | 0.00 | 22 | 1022.0 |
| 20260905192646 | 92 | 324 | 0.0 | 0.0 | 0.00 | 0.00 | 0.00 | 26 | 1022.0 |
| 20260905192143 | 91 | 342 | 0.9 | 0.9 | 0.00 | 0.00 | 0.00 | 22 | 1022.0 |
| 20260905191642 | 91 | 336 | 0.0 | 0.0 | 0.00 | 0.00 | 0.00 | 24 | 1022.2 |
| 20260905191140 | 91 | 336 | 0.0 | 0.0 | 0.00 | 0.00 | 0.00 | 24 | 1022.2 |
| 20260905190639 | 90 | 343 | 0.0 | 0.9 | 0.00 | 0.00 | 0.00 | 25 | 1022.0 |
| 20260905190138 | 91 | 16 | 1.7 | 1.7 | 0.00 | 0.00 | 0.00 | 21 | 1022.0 |
| 20260905185637 | 92 | 307 | 0.0 | 0.0 | 0.00 | 0.00 | 0.00 | 21 | 1022.2 |
| 20260905185132 | 92 | 303 | 1.7 | 1.7 | 0.00 | 0.00 | 0.00 | 21 | 1022.3 |
| 20260905184631 | 91 | 312 | 0.0 | 0.0 | 0.00 | 0.00 | 0.00 | 24 | 1022.4 |
| 20260905184131 | 90 | 126 | 0.0 | 0.9 | 0.00 | 0.00 | 0.00 | 23 | 1022.3 |
| 20260905183630 | 89 | 2 | 0.9 | 0.9 | 0.00 | 0.00 | 0.00 | 24 | 1022.6 |
| 20260905183126 | 89 | 353 | 0.9 | 0.9 | 0.00 | 0.00 | 0.00 | 23 | 1022.5 |
| 20260905182625 | 89 | 347 | 0.0 | 0.9 | 0.00 | 0.00 | 0.00 | 25 | 1022.6 |
| 20260905182125 | 89 | 6 | 0.9 | 0.9 | 0.00 | 0.00 | 0.00 | 23 | 1022.5 |
| 20260905181620 | 89 | 359 | 0.9 | 0.9 | 0.00 | 0.00 | 0.00 | 26 | 1022.4 |
| 20260905181119 | 89 | 311 | 0.9 | 0.9 | 0.00 | 0.00 | 0.00 | 22 | 1022.6 |
| 20260905180614 | 90 | 301 | 0.9 | 0.9 | 0.00 | 0.00 | 0.00 | 22 | 1022.8 |
| 20260905180109 | 90 | 306 | 2.6 | 3.5 | 0.00 | 0.00 | 0.00 | 21 | 1022.8 |
| 20260905175609 | 89 | 307 | 0.0 | 0.9 | 0.00 | 0.00 | 0.00 | 22 | 1022.8 |
| 20260905175104 | 88 | 357 | 0.0 | 0.9 | 0.00 | 0.00 | 0.00 | 23 | 1022.8 |
| 20260905174600 | 88 | 358 | 0.9 | 0.9 | 0.00 | 0.00 | 0.00 | 22 | 1022.9 |
| 20260905174055 | 89 | 22 | 0.9 | 0.9 | 0.00 | 0.00 | 0.00 | 25 | 1022.9 |
| 20260905173551 | 89 | 106 | 2.6 | 2.6 | 0.00 | 0.00 | 0.00 | 24 | 1023.0 |
| 20260905173046 | 87 | 300 | 0.0 | 0.0 | 0.00 | 0.00 | 0.00 | 29 | 1022.9 |
| 20260905172545 | 88 | 318 | 1.7 | 1.7 | 0.00 | 0.00 | 0.00 | 25 | 1023.1 |
| 20260905172040 | 87 | 352 | 0.9 | 0.9 | 0.00 | 0.00 | 0.00 | 26 | 1023.1 |
| 20260905171537 | 87 | 1 | 0.0 | 0.9 | 0.00 | 0.00 | 0.00 | 28 | 1023.2 |
| 20260905171032 | 86 | 354 | 0.0 | 0.0 | 0.00 | 0.00 | 0.00 | 28 | 1023.2 |
| 20260905170529 | 85 | 331 | 0.9 | 1.7 | 0.00 | 0.00 | 0.00 | 26 | 1023.4 |
| 20260905170023 | 84 | 358 | 0.0 | 0.0 | 0.00 | 0.00 | 0.00 | 29 | 1023.2 |
| 20260905165519 | 83 | 353 | 0.9 | 0.9 | 0.00 | 0.00 | 0.00 | 29 | 1023.1 |
| 20260905165014 | 82 | 308 | 0.9 | 0.9 | 0.00 | 0.00 | 0.00 | 31 | 1023.1 |
| 20260905164514 | 80 | 325 | 0.9 | 0.9 | 0.00 | 0.00 | 0.00 | 31 | 1023.1 |
| 20260905164008 | 79 | 326 | 0.0 | 0.0 | 0.00 | 0.00 | 0.00 | 38 | 1023.1 |
| 20260905163505 | 79 | 325 | 0.0 | 0.0 | 0.00 | 0.00 | 0.00 | 34 | 1023.1 |
| 20260905163000 | 80 | 325 | 0.0 | 0.0 | 0.00 | 0.00 | 0.00 | 34 | 1023.1 |
| 20260905162456 | 80 | 327 | 0.0 | 0.9 | 0.00 | 0.00 | 0.00 | 32 | 1023.1 |
| 20260905161951 | 79 | 327 | 0.0 | 0.9 | 0.00 | 0.00 | 0.00 | 38 | 1023.2 |
| 20260905161450 | 78 | 326 | 0.0 | 0.0 | 0.00 | 0.00 | 0.00 | 35 | 1023.0 |
| 20260905160948 | 78 | 359 | 0.0 | 0.0 | 0.00 | 0.00 | 0.00 | 37 | 1023.2 |
| 20260905160442 | 78 | 359 | 0.0 | 0.0 | 0.00 | 0.00 | 0.00 | 35 | 1023.0 |
| 20260905155941 | 77 | 315 | 0.0 | 0.0 | 0.00 | 0.00 | 0.00 | 45 | 1023.1 |
| 20260905155437 | 77 | 307 | 0.0 | 0.0 | 0.00 | 0.00 | 0.00 | 38 | 1023.0 |
| 20260905154935 | 76 | 317 | 0.9 | 0.9 | 0.00 | 0.00 | 0.00 | 38 | 1023.0 |
| 20260905154431 | 76 | 5 | 0.0 | 0.0 | 0.00 | 0.00 | 0.00 | 40 | 1022.8 |
| 20260905153926 | 76 | 5 | 0.9 | 0.9 | 0.00 | 0.00 | 0.00 | 39 | 1023.0 |
| 20260905153422 | 75 | 5 | 0.0 | 0.9 | 0.00 | 0.00 | 0.00 | 40 | 1023.0 |
| 20260905152922 | 75 | 5 | 0.0 | 0.0 | 0.00 | 0.00 | 0.00 | 44 | 1023.0 |
| 20260905152421 | 75 | 5 | 0.9 | 1.7 | 0.00 | 0.00 | 0.00 | 43 | 1023.1 |
| 20260905151916 | 74 | 6 | 0.9 | 0.9 | 0.00 | 0.00 | 0.00 | 45 | 1023.4 |
| 20260905151412 | 74 | 6 | 0.0 | 0.0 | 0.00 | 0.00 | 0.00 | 47 | 1023.0 |
| 20260905150906 | 73 | 6 | 0.0 | 0.9 | 0.00 | 0.00 | 0.00 | 47 | 1023.0 |
| 20260905150401 | 73 | 5 | 0.0 | 0.0 | 0.00 | 0.00 | 0.00 | 57 | 1023.1 |
| 20260905145858 | 72 | 6 | 0.0 | 0.9 | 0.00 | 0.00 | 0.00 | 55 | 1023.2 |
| 20260905145358 | 71 | 5 | 0.0 | 0.0 | 0.00 | 0.00 | 0.00 | 57 | 1023.2 |
| 20260905144857 | 70 | 3 | 0.9 | 0.9 | 0.00 | 0.00 | 0.00 | 57 | 1023.0 |
| 20260905144353 | 69 | 1 | 0.0 | 0.9 | 0.00 | 0.00 | 0.00 | 57 | 1023.0 |
| 20260905143851 | 69 | 2 | 0.9 | 0.9 | 0.00 | 0.00 | 0.00 | 58 | 1023.1 |
| 20260905143346 | 71 | 295 | 0.9 | 0.9 | 0.00 | 0.00 | 0.00 | 56 | 1023.0 |
| 20260905142845 | 69 | 293 | 0.0 | 0.0 | 0.00 | 0.00 | 0.00 | 57 | 1023.1 |
| 20260905142344 | 67 | 294 | 0.0 | 0.0 | 0.00 | 0.00 | 0.00 | 63 | 1023.2 |
| 20260905141840 | 65 | 294 | 0.0 | 0.0 | 0.00 | 0.00 | 0.00 | 65 | 1023.2 |
| 20260905141335 | 61 | 293 | 0.0 | 0.0 | 0.00 | 0.00 | 0.00 | 72 | 1023.4 |
| 20260905140831 | 60 | 293 | 0.0 | 0.0 | 0.00 | 0.00 | 0.00 | 75 | 1023.4 |
| 20260905140331 | 59 | 292 | 0.0 | 0.0 | 0.00 | 0.00 | 0.00 | 74 | 1023.4 |
| 20260905135830 | 58 | 292 | 0.0 | 0.0 | 0.00 | 0.00 | 0.00 | 74 | 1023.2 |
| 20260905135327 | 58 | 292 | 0.0 | 0.0 | 0.00 | 0.00 | 0.00 | 75 | 1023.2 |
| 20260905134822 | 58 | 292 | 0.0 | 0.9 | 0.00 | 0.00 | 0.00 | 76 | 1023.2 |
| 20260905134320 | 58 | 292 | 0.0 | 0.0 | 0.00 | 0.00 | 0.00 | 77 | 1023.1 |
| 20260905133820 | 57 | 292 | 0.9 | 0.9 | 0.00 | 0.00 | 0.00 | 77 | 1023.1 |
| 20260905133316 | 57 | 292 | 0.0 | 0.9 | 0.00 | 0.00 | 0.00 | 77 | 1023.0 |
| 20260905132815 | 57 | 292 | 0.0 | 0.0 | 0.00 | 0.00 | 0.00 | 77 | 1022.9 |
| 20260905132310 | 57 | 292 | 0.0 | 0.0 | 0.00 | 0.00 | 0.00 | 77 | 1022.8 |
| 20260905131805 | 57 | 292 | 0.0 | 0.0 | 0.00 | 0.00 | 0.00 | 77 | 1022.9 |
| 20260905131300 | 57 | 292 | 0.0 | 0.0 | 0.00 | 0.00 | 0.00 | 76 | 1022.8 |
| 20260905130755 | 56 | 292 | 0.0 | 0.0 | 0.00 | 0.00 | 0.00 | 75 | 1022.9 |
| 20260905130254 | 56 | 292 | 0.0 | 0.0 | 0.00 | 0.00 | 0.00 | 76 | 1022.6 |
| 20260905125749 | 56 | 292 | 0.0 | 0.0 | 0.00 | 0.00 | 0.00 | 77 | 1022.8 |
| 20260905125244 | 56 | 292 | 0.0 | 0.9 | 0.00 | 0.00 | 0.00 | 77 | 1022.5 |
| 20260905124741 | 56 | 292 | 0.0 | 0.9 | 0.00 | 0.00 | 0.00 | 77 | 1022.3 |
| 20260905124237 | 56 | 292 | 0.0 | 0.0 | 0.00 | 0.00 | 0.00 | 75 | 1022.3 |
| 20260905123732 | 56 | 292 | 0.0 | 0.0 | 0.00 | 0.00 | 0.00 | 76 | 1022.2 |
| 20260905123229 | 56 | 292 | 0.9 | 0.9 | 0.00 | 0.00 | 0.00 | 78 | 1022.2 |